Time;durP1;ratioP1;P1;durP2;ratioP2;P2;SDS_P1;SDS_P2;PMS_P1;PMS_P2;Temp;Humidity;BMP_temperature;BMP_pressure;BME280_temperature;BME280_humidity;BME280_pressure;Samples;Min_cycle;Max_cycle;Signal;HPM_P1;HPM_P2
2022/12/08 00:01:29;;;;;;;10.02;3.40;;;27.90;83.40;;;;;;4983877;28;20098;-53
2022/12/08 00:03:57;;;;;;;10.77;4.47;;;27.90;83.20;;;;;;4983819;28;20086;-54
2022/12/08 00:09:31;;;;;;;11.88;4.30;;;27.80;83.50;;;;;;4983754;28;20034;-52
2022/12/08 00:12:01;;;;;;;88.40;74.95;;;27.80;83.60;;;;;;4983809;28;20042;-52
2022/12/08 00:14:38;;;;;;;39.30;26.50;;;27.80;83.60;;;;;;4983518;28;20029;-52
2022/12/08 00:17:06;;;;;;;29.00;20.70;;;27.80;83.60;;;;;;4984006;28;20066;-51
2022/12/08 00:19:33;;;;;;;24.98;14.25;;;27.80;83.50;;;;;;4983434;28;20042;-53
2022/12/08 00:22:00;;;;;;;19.25;12.50;;;27.80;83.40;;;;;;4983881;28;20034;-52
2022/12/08 00:24:31;;;;;;;16.48;10.13;;;27.80;83.50;;;;;;4982291;28;20121;-53
2022/12/08 00:26:57;;;;;;;20.17;8.55;;;27.80;83.20;;;;;;4983542;28;20234;-53
2022/12/08 00:29:24;;;;;;;18.65;8.15;;;27.80;83.00;;;;;;4983068;28;20041;-55
2022/12/08 00:31:51;;;;;;;26.88;7.70;;;27.80;83.00;;;;;;4983581;28;20023;-53
2022/12/08 00:34:18;;;;;;;29.85;7.32;;;27.80;82.90;;;;;;4983391;28;20030;-53
2022/12/08 00:36:45;;;;;;;29.15;7.53;;;27.80;83.00;;;;;;4983431;28;20023;-54
2022/12/08 00:39:13;;;;;;;56.30;8.40;;;27.80;82.90;;;;;;4983227;28;20065;-54
2022/12/08 00:44:25;;;;;;;20.42;5.90;;;27.70;82.70;;;;;;4982860;28;20100;-53
2022/12/08 00:46:52;;;;;;;18.77;6.22;;;27.70;82.60;;;;;;4983410;28;20069;-53
2022/12/08 00:49:19;;;;;;;19.55;5.40;;;27.70;82.80;;;;;;4983235;28;20093;-53
2022/12/08 00:51:45;;;;;;;11.05;4.95;;;27.70;82.70;;;;;;4983329;28;20295;-53
2022/12/08 00:54:12;;;;;;;14.85;4.53;;;27.70;82.60;;;;;;4983157;28;20322;-53
2022/12/08 00:56:39;;;;;;;14.23;7.55;;;27.60;82.50;;;;;;4983389;28;20057;-52
2022/12/08 00:59:08;;;;;;;16.73;8.18;;;27.60;82.40;;;;;;4983131;28;20345;-57
2022/12/08 01:01:35;;;;;;;11.52;7.28;;;27.60;82.40;;;;;;4982999;28;20268;-54
2022/12/08 01:04:11;;;;;;;11.30;6.10;;;27.60;82.50;;;;;;4983082;28;20031;-52
2022/12/08 01:06:38;;;;;;;12.30;4.40;;;27.60;82.10;;;;;;4982927;28;20033;-55
2022/12/08 01:09:07;;;;;;;8.55;4.65;;;27.50;82.00;;;;;;4982770;28;20306;-52
2022/12/08 01:11:34;;;;;;;7.50;4.60;;;27.50;82.50;;;;;;4983029;28;20082;-52
2022/12/08 01:14:01;;;;;;;8.65;4.15;;;27.50;82.00;;;;;;4982775;28;20034;-53
2022/12/08 01:16:31;;;;;;;13.80;4.25;;;27.50;81.90;;;;;;4982829;28;20102;-52
2022/12/08 01:18:58;;;;;;;15.05;4.90;;;27.50;81.80;;;;;;4982855;28;20046;-55
2022/12/08 01:21:26;;;;;;;10.82;3.83;;;27.50;81.70;;;;;;4982879;28;20042;-51
2022/12/08 01:23:53;;;;;;;15.45;3.90;;;27.50;82.00;;;;;;4982829;28;20094;-53
2022/12/08 01:26:20;;;;;;;11.13;3.60;;;27.40;82.00;;;;;;4982779;28;20035;-57
2022/12/08 01:28:47;;;;;;;16.15;3.03;;;27.40;82.10;;;;;;4977840;28;20050;-52
2022/12/08 01:31:19;;;;;;;5.45;2.78;;;27.30;82.50;;;;;;4973693;28;20058;-53
2022/12/08 01:33:46;;;;;;;4.22;2.20;;;27.00;82.80;;;;;;4972623;28;20034;-51
2022/12/08 01:36:35;;;;;;;5.32;2.65;;;26.80;82.90;;;;;;4982447;28;20099;-50
2022/12/08 01:39:05;;;;;;;7.28;3.30;;;26.60;84.00;;;;;;4962879;29;20023;-52
2022/12/08 01:41:33;;;;;;;4.80;2.95;;;26.50;84.60;;;;;;4973792;28;20206;-52
2022/12/08 01:44:23;;;;;;;6.93;3.05;;;26.40;85.00;;;;;;4961753;28;20035;-53
2022/12/08 01:47:02;;;;;;;13.97;2.97;;;26.30;85.40;;;;;;4951940;28;20063;-53
2022/12/08 01:49:33;;;;;;;10.10;4.22;;;26.20;86.10;;;;;;4982004;28;20081;-52
2022/12/08 01:52:17;;;;;;;7.88;3.97;;;26.10;86.20;;;;;;4982223;28;20033;-52
2022/12/08 01:54:55;;;;;;;10.57;3.75;;;26.10;86.20;;;;;;4982056;28;20326;-53
2022/12/08 01:57:28;;;;;;;10.52;5.00;;;26.00;86.00;;;;;;4976264;28;20303;-56
2022/12/08 02:00:03;;;;;;;13.52;5.15;;;26.00;86.00;;;;;;4976258;28;20038;-53
2022/12/08 02:02:55;;;;;;;6.93;3.55;;;26.00;86.40;;;;;;4964203;28;20038;-54
2022/12/08 02:05:26;;;;;;;8.15;4.00;;;26.00;86.10;;;;;;4962518;28;20031;-52
2022/12/08 02:07:53;;;;;;;6.28;3.35;;;25.90;86.50;;;;;;4962885;29;20091;-54
2022/12/08 02:10:23;;;;;;;7.85;3.00;;;25.90;86.60;;;;;;4962435;28;20330;-58
2022/12/08 02:12:52;;;;;;;6.82;3.35;;;25.90;86.70;;;;;;4969189;28;20098;-55
2022/12/08 02:15:24;;;;;;;7.85;3.28;;;25.90;87.10;;;;;;4966190;28;20035;-54
2022/12/08 02:18:04;;;;;;;6.70;3.38;;;25.80;87.70;;;;;;4971348;28;20047;-55
2022/12/08 02:20:57;;;;;;;5.45;2.60;;;25.70;87.50;;;;;;4968497;28;20019;-51
2022/12/08 02:23:47;;;;;;;12.30;3.33;;;25.70;87.50;;;;;;4974578;28;20068;-51
2022/12/08 02:26:51;;;;;;;5.85;3.50;;;25.70;88.10;;;;;;4985768;28;20388;-51
2022/12/08 02:29:49;;;;;;;7.50;3.60;;;25.70;88.20;;;;;;4971017;28;20032;-51
2022/12/08 02:32:49;;;;;;;9.57;4.07;;;25.70;88.10;;;;;;4964935;28;20039;-52
2022/12/08 02:35:24;;;;;;;9.40;4.35;;;25.60;88.10;;;;;;4962195;28;20023;-53
2022/12/08 02:38:05;;;;;;;6.47;3.72;;;25.60;88.20;;;;;;4962627;29;20028;-54
2022/12/08 02:40:36;;;;;;;10.25;3.67;;;25.60;87.80;;;;;;4966486;28;20346;-52
2022/12/08 02:43:34;;;;;;;12.52;4.43;;;25.60;88.40;;;;;;4967755;28;20046;-54
2022/12/08 02:46:08;;;;;;;6.07;3.83;;;25.60;88.30;;;;;;4972247;28;20054;-56
2022/12/08 02:48:35;;;;;;;6.05;3.88;;;25.60;88.30;;;;;;4972565;28;20089;-51
2022/12/08 02:51:01;;;;;;;9.63;3.40;;;25.50;88.60;;;;;;4984550;28;20026;-51
2022/12/08 02:53:31;;;;;;;6.32;3.10;;;25.50;88.60;;;;;;4984705;28;20034;-51
2022/12/08 02:56:24;;;;;;;18.08;3.38;;;25.50;88.70;;;;;;4984757;28;20311;-52
2022/12/08 02:59:08;;;;;;;8.93;3.13;;;25.40;88.60;;;;;;4983158;28;20018;-51
2022/12/08 03:02:00;;;;;;;10.35;4.55;;;25.40;88.90;;;;;;4973724;28;20043;-56
2022/12/08 03:04:51;;;;;;;7.73;2.93;;;25.40;89.40;;;;;;4983336;28;20398;-51
2022/12/08 03:07:33;;;;;;;6.28;2.67;;;25.40;89.60;;;;;;4984952;28;20023;-51
2022/12/08 03:10:09;;;;;;;11.70;2.78;;;25.30;89.60;;;;;;4982755;28;20246;-49
2022/12/08 03:12:53;;;;;;;4.85;2.70;;;25.30;89.40;;;;;;5012208;28;20031;-51
2022/12/08 03:15:21;;;;;;;4.03;2.17;;;25.30;89.20;;;;;;4983971;28;20250;-52
2022/12/08 03:17:58;;;;;;;5.40;2.40;;;25.30;88.70;;;;;;5074357;28;20036;-53
2022/12/08 03:20:27;;;;;;;4.78;2.53;;;25.30;89.10;;;;;;4980767;28;20038;-51
2022/12/08 03:22:57;;;;;;;6.80;2.75;;;25.40;88.90;;;;;;4971769;28;20039;-52
2022/12/08 03:25:29;;;;;;;5.47;2.65;;;25.50;88.50;;;;;;4973178;28;20037;-53
2022/12/08 03:27:59;;;;;;;4.82;2.40;;;25.70;88.30;;;;;;4975566;28;20023;-53
2022/12/08 03:30:32;;;;;;;6.22;2.33;;;25.90;87.80;;;;;;4965069;29;20027;-56
2022/12/08 03:33:08;;;;;;;4.47;2.08;;;26.00;87.40;;;;;;4965066;28;20069;-52
2022/12/08 03:35:38;;;;;;;6.40;2.58;;;26.00;87.00;;;;;;4964846;29;20038;-53
2022/12/08 03:38:10;;;;;;;5.75;2.30;;;26.10;86.90;;;;;;4964816;29;20023;-54
2022/12/08 03:40:38;;;;;;;7.20;2.75;;;26.20;86.70;;;;;;4964495;28;20031;-50
2022/12/08 03:43:05;;;;;;;7.70;2.88;;;26.20;86.60;;;;;;4964607;29;20094;-52
2022/12/08 03:45:31;;;;;;;5.93;2.83;;;26.30;86.50;;;;;;4964533;28;20059;-52
2022/12/08 03:47:58;;;;;;;5.13;2.95;;;26.30;86.30;;;;;;4965246;28;20035;-51
2022/12/08 03:50:25;;;;;;;5.60;2.53;;;26.30;86.20;;;;;;4964701;28;20342;-51
2022/12/08 03:52:52;;;;;;;4.70;2.75;;;26.30;86.20;;;;;;4965066;29;20307;-50
2022/12/08 03:55:20;;;;;;;7.47;2.80;;;26.40;86.30;;;;;;4964467;29;20374;-53
2022/12/08 03:57:46;;;;;;;11.38;3.10;;;26.40;86.30;;;;;;4965095;28;20312;-53
2022/12/08 04:00:16;;;;;;;5.45;2.60;;;26.40;86.30;;;;;;4964900;28;20208;-51
2022/12/08 04:02:43;;;;;;;7.63;2.45;;;26.40;86.40;;;;;;4974782;28;20325;-51
2022/12/08 04:05:09;;;;;;;3.45;2.58;;;26.40;86.30;;;;;;4965248;28;20171;-52
2022/12/08 04:07:36;;;;;;;6.70;2.47;;;26.40;86.40;;;;;;4974794;28;20170;-50
2022/12/08 04:10:04;;;;;;;9.05;3.55;;;26.40;86.50;;;;;;4964843;28;20258;-62
2022/12/08 04:12:30;;;;;;;11.98;3.90;;;26.50;86.70;;;;;;4964957;29;20023;-61
2022/12/08 04:14:57;;;;;;;11.60;5.38;;;26.40;86.60;;;;;;4964480;29;20031;-54
2022/12/08 04:17:23;;;;;;;10.40;7.82;;;26.50;86.60;;;;;;4964779;29;20354;-52
2022/12/08 04:19:50;;;;;;;10.60;7.97;;;26.50;86.50;;;;;;4967128;28;20027;-52
2022/12/08 04:22:17;;;;;;;13.77;12.10;;;26.40;86.40;;;;;;4973899;28;20072;-49
2022/12/08 04:24:43;;;;;;;27.75;24.88;;;26.40;86.30;;;;;;4972370;28;20242;-51
2022/12/08 04:27:10;;;;;;;27.15;24.45;;;26.40;86.30;;;;;;4964431;28;20031;-54
2022/12/08 04:29:37;;;;;;;25.05;18.52;;;26.40;86.30;;;;;;4964290;28;20307;-50
2022/12/08 04:32:04;;;;;;;14.27;12.73;;;26.40;86.20;;;;;;4969350;28;20031;-54
2022/12/08 04:34:31;;;;;;;14.43;10.60;;;26.40;86.20;;;;;;4978186;28;20314;-61
2022/12/08 04:36:57;;;;;;;11.60;8.90;;;26.40;86.30;;;;;;4971929;28;20034;-52
2022/12/08 04:39:24;;;;;;;11.02;7.60;;;26.40;86.40;;;;;;4974664;28;20339;-53
2022/12/08 04:41:51;;;;;;;8.55;5.72;;;26.30;86.40;;;;;;4972624;28;20251;-56
2022/12/08 04:44:17;;;;;;;6.88;5.03;;;26.30;86.30;;;;;;4978767;28;20133;-54
2022/12/08 04:46:44;;;;;;;6.95;4.20;;;26.30;86.20;;;;;;4963773;28;20035;-52
2022/12/08 04:49:10;;;;;;;5.88;3.88;;;26.30;86.20;;;;;;4963789;28;20026;-51
2022/12/08 04:51:37;;;;;;;4.13;3.42;;;26.30;86.10;;;;;;4973155;28;20200;-53
2022/12/08 04:54:03;;;;;;;5.07;2.80;;;26.30;86.00;;;;;;4965635;28;20316;-52
2022/12/08 04:56:30;;;;;;;5.40;3.05;;;26.30;85.90;;;;;;4963929;29;20055;-53
2022/12/08 04:58:57;;;;;;;4.68;2.75;;;26.30;85.90;;;;;;4963711;29;20046;-52
2022/12/08 05:01:23;;;;;;;6.03;2.72;;;26.30;85.80;;;;;;4962512;28;20031;-51
2022/12/08 05:03:50;;;;;;;5.95;2.90;;;26.30;85.60;;;;;;4965171;28;20106;-53
2022/12/08 05:06:16;;;;;;;4.13;2.65;;;26.30;85.70;;;;;;4996374;28;20040;-51
2022/12/08 05:08:43;;;;;;;3.50;2.55;;;26.30;85.60;;;;;;4987569;28;20322;-51
2022/12/08 05:11:12;;;;;;;7.38;3.17;;;26.30;85.70;;;;;;4964992;28;20069;-52
2022/12/08 05:13:39;;;;;;;4.40;3.25;;;26.30;85.60;;;;;;4962461;28;20023;-50
2022/12/08 05:16:08;;;;;;;7.20;3.30;;;26.30;85.70;;;;;;4963458;28;20039;-53
2022/12/08 05:18:35;;;;;;;5.18;3.30;;;26.30;85.80;;;;;;4963305;28;20046;-52
2022/12/08 05:21:03;;;;;;;8.18;3.53;;;26.30;85.80;;;;;;4963386;29;20035;-55
2022/12/08 05:23:29;;;;;;;7.60;4.38;;;26.30;85.80;;;;;;4963795;28;20232;-55
2022/12/08 05:25:56;;;;;;;6.65;4.38;;;26.30;85.80;;;;;;4963109;29;20034;-54
2022/12/08 05:28:22;;;;;;;5.63;4.07;;;26.30;85.70;;;;;;4963221;28;20023;-53
2022/12/08 05:30:50;;;;;;;6.60;4.10;;;26.30;85.60;;;;;;4963171;28;20031;-51
2022/12/08 05:33:17;;;;;;;7.38;3.90;;;26.30;85.60;;;;;;4962967;28;20026;-54
2022/12/08 05:35:43;;;;;;;6.70;3.38;;;26.20;85.70;;;;;;4968320;28;20097;-53
2022/12/08 05:38:11;;;;;;;4.82;3.65;;;26.20;85.80;;;;;;4973812;28;20030;-51
2022/12/08 05:40:39;;;;;;;7.07;3.45;;;26.20;85.90;;;;;;4971090;28;20019;-51
2022/12/08 05:43:06;;;;;;;5.70;3.38;;;26.20;86.00;;;;;;4971489;28;20046;-54
2022/12/08 05:45:32;;;;;;;7.63;3.05;;;26.20;86.00;;;;;;4962821;28;20050;-52
2022/12/08 05:47:59;;;;;;;7.63;2.92;;;26.20;86.00;;;;;;4962712;29;20044;-52
2022/12/08 05:50:26;;;;;;;5.32;3.10;;;26.20;86.00;;;;;;4962841;28;20065;-51
2022/12/08 05:52:52;;;;;;;6.13;2.67;;;26.20;86.10;;;;;;4963384;29;20035;-53
2022/12/08 05:55:19;;;;;;;5.43;2.83;;;26.10;86.10;;;;;;4973284;28;20104;-53
2022/12/08 05:57:45;;;;;;;4.05;2.60;;;26.10;86.00;;;;;;5067363;28;20036;-52
2022/12/08 06:00:12;;;;;;;3.80;2.78;;;26.10;86.00;;;;;;5051347;28;20038;-52
2022/12/08 06:02:39;;;;;;;3.83;2.60;;;26.10;86.20;;;;;;5061034;28;20024;-52
2022/12/08 06:05:06;;;;;;;6.97;3.00;;;26.10;86.10;;;;;;5003991;28;20204;-51
2022/12/08 06:07:33;;;;;;;4.40;2.67;;;26.10;86.20;;;;;;5068279;28;20032;-53
2022/12/08 06:09:59;;;;;;;5.70;2.90;;;26.10;86.30;;;;;;4980997;28;20058;-54
2022/12/08 06:12:26;;;;;;;6.00;3.03;;;26.00;86.30;;;;;;4963090;29;20085;-52
2022/12/08 06:14:52;;;;;;;4.22;2.70;;;26.00;86.40;;;;;;4962846;29;20323;-51
2022/12/08 06:17:19;;;;;;;6.60;2.95;;;26.00;86.40;;;;;;5079905;28;20087;-57
2022/12/08 06:19:46;;;;;;;5.53;2.70;;;26.00;86.50;;;;;;5083751;28;20028;-57
2022/12/08 06:22:12;;;;;;;5.22;2.92;;;26.00;86.50;;;;;;5085281;28;20189;-54
2022/12/08 06:24:39;;;;;;;3.30;2.45;;;26.00;86.30;;;;;;5087508;28;20060;-53
2022/12/08 06:27:05;;;;;;;5.90;2.75;;;26.00;86.70;;;;;;5022759;28;20044;-52
2022/12/08 06:29:32;;;;;;;5.15;2.55;;;26.00;86.00;;;;;;4992717;28;20023;-52
2022/12/08 06:31:58;;;;;;;4.72;2.50;;;26.00;85.70;;;;;;4987171;28;20305;-51
2022/12/08 06:34:25;;;;;;;5.78;2.65;;;26.00;85.40;;;;;;4982731;28;20116;-52
2022/12/08 06:36:51;;;;;;;6.30;2.65;;;26.00;85.00;;;;;;5048960;28;20056;-53
2022/12/08 06:39:18;;;;;;;5.32;2.42;;;26.00;84.60;;;;;;5022088;28;20327;-48
2022/12/08 06:44:29;;;;;;;2.80;2.33;;;26.00;84.00;;;;;;5060266;28;20064;-51
2022/12/08 06:46:56;;;;;;;4.43;2.28;;;26.10;83.80;;;;;;5052384;28;20039;-52
2022/12/08 06:49:22;;;;;;;4.13;2.40;;;26.00;83.60;;;;;;4989485;28;20018;-52
2022/12/08 06:51:49;;;;;;;5.32;2.30;;;26.10;83.50;;;;;;5087397;28;20032;-52
2022/12/08 06:54:15;;;;;;;5.40;2.20;;;26.10;83.30;;;;;;5086937;28;20028;-53
2022/12/08 06:56:42;;;;;;;3.05;2.30;;;26.10;83.20;;;;;;5087244;28;20020;-53
2022/12/08 06:59:09;;;;;;;2.85;2.38;;;26.10;83.00;;;;;;5087318;28;20073;-52
2022/12/08 07:01:35;;;;;;;3.28;2.40;;;26.10;82.80;;;;;;5014273;28;20031;-52
2022/12/08 07:04:02;;;;;;;3.90;2.15;;;26.10;82.70;;;;;;5086859;28;20103;-53
2022/12/08 07:06:28;;;;;;;3.17;2.05;;;26.00;82.60;;;;;;5069307;28;20247;-51
2022/12/08 07:08:55;;;;;;;4.25;2.20;;;26.10;82.60;;;;;;5009130;28;20222;-52
2022/12/08 07:11:22;;;;;;;5.60;2.30;;;26.10;82.40;;;;;;5058624;28;20100;-52
2022/12/08 07:13:48;;;;;;;3.55;2.00;;;26.00;82.30;;;;;;5086621;28;20209;-51
2022/12/08 07:16:15;;;;;;;3.80;2.50;;;26.00;82.30;;;;;;5086619;28;20028;-53
2022/12/08 07:18:42;;;;;;;3.65;2.53;;;26.00;82.30;;;;;;5070955;28;20035;-52
2022/12/08 07:21:12;;;;;;;4.07;2.50;;;26.00;82.30;;;;;;4985033;28;20026;-52
2022/12/08 07:23:38;;;;;;;4.18;2.45;;;26.00;82.70;;;;;;5007031;28;20111;-52
2022/12/08 07:26:07;;;;;;;4.90;2.40;;;26.00;82.60;;;;;;5053532;28;20032;-53
2022/12/08 07:28:35;;;;;;;4.95;2.20;;;26.00;82.90;;;;;;5086342;28;20016;-53
2022/12/08 07:31:02;;;;;;;5.03;2.42;;;25.90;82.50;;;;;;5086307;28;20036;-52
2022/12/08 07:33:29;;;;;;;2.35;2.10;;;26.00;82.60;;;;;;5086087;28;20361;-59
2022/12/08 07:35:57;;;;;;;4.20;2.00;;;25.90;82.40;;;;;;5086453;28;20036;-53
2022/12/08 07:38:24;;;;;;;7.95;2.95;;;25.90;82.40;;;;;;5086267;28;20020;-51
2022/12/08 07:40:52;;;;;;;5.82;2.53;;;25.90;82.30;;;;;;5086286;28;20052;-54
2022/12/08 07:43:19;;;;;;;6.07;2.78;;;26.00;82.60;;;;;;5086258;28;20036;-52
2022/12/08 07:45:46;;;;;;;2.80;2.35;;;25.90;82.60;;;;;;5086031;28;20033;-52
2022/12/08 07:48:13;;;;;;;6.40;3.08;;;25.90;82.70;;;;;;5086212;28;20307;-53
2022/12/08 07:50:40;;;;;;;4.82;2.40;;;25.90;82.80;;;;;;5086209;28;20078;-52
2022/12/08 07:53:07;;;;;;;7.22;2.92;;;25.90;83.00;;;;;;5086303;28;20017;-54
2022/12/08 07:55:33;;;;;;;6.20;2.78;;;25.90;83.20;;;;;;5086257;28;20310;-53
2022/12/08 07:58:00;;;;;;;5.13;2.58;;;25.90;83.30;;;;;;5085961;28;20131;-52
2022/12/08 08:00:26;;;;;;;5.25;2.65;;;25.90;83.40;;;;;;5085839;28;20028;-53
2022/12/08 08:02:53;;;;;;;4.95;2.30;;;25.90;83.40;;;;;;5086740;28;20021;-57
2022/12/08 08:05:21;;;;;;;7.97;2.63;;;25.90;83.50;;;;;;5086071;28;20024;-53
2022/12/08 08:07:47;;;;;;;4.93;2.55;;;25.90;83.50;;;;;;5086092;28;20100;-53
2022/12/08 08:10:14;;;;;;;4.35;2.60;;;25.90;83.50;;;;;;5085666;28;20200;-52
2022/12/08 08:12:40;;;;;;;4.85;2.60;;;25.90;83.50;;;;;;5029950;28;20046;-53
2022/12/08 08:15:09;;;;;;;4.82;2.63;;;25.90;83.40;;;;;;5077355;28;20038;-52
2022/12/08 08:17:37;;;;;;;3.38;2.55;;;25.90;83.40;;;;;;5070868;28;20107;-54
2022/12/08 08:20:06;;;;;;;5.90;2.53;;;25.90;83.40;;;;;;5085534;28;20028;-54
2022/12/08 08:22:33;;;;;;;4.50;2.72;;;25.80;83.50;;;;;;5064384;28;20048;-55
2022/12/08 08:24:59;;;;;;;5.40;2.45;;;25.90;83.60;;;;;;5058629;28;20059;-52
2022/12/08 08:27:26;;;;;;;4.53;2.35;;;25.80;83.60;;;;;;4990430;28;20027;-52
2022/12/08 08:29:53;;;;;;;3.65;2.40;;;25.80;83.70;;;;;;4983046;28;20022;-51
2022/12/08 08:32:20;;;;;;;5.13;2.65;;;25.80;83.90;;;;;;4975470;28;20041;-51
2022/12/08 08:34:47;;;;;;;3.83;2.15;;;25.80;84.00;;;;;;5040783;28;20015;-52
2022/12/08 08:37:13;;;;;;;3.25;2.42;;;25.80;84.10;;;;;;5055235;28;20033;-52
2022/12/08 08:39:41;;;;;;;3.58;2.25;;;25.80;84.20;;;;;;5084968;28;20013;-52
2022/12/08 08:42:08;;;;;;;3.88;2.40;;;25.80;84.30;;;;;;5084353;28;20021;-53
2022/12/08 08:44:36;;;;;;;3.33;2.45;;;25.80;84.40;;;;;;5004396;28;20053;-50
2022/12/08 08:47:02;;;;;;;5.95;2.15;;;25.80;84.60;;;;;;5018004;28;20320;-53
2022/12/08 08:49:29;;;;;;;5.25;2.30;;;25.80;84.70;;;;;;5025074;28;20037;-55
2022/12/08 08:51:56;;;;;;;5.07;2.38;;;25.70;84.70;;;;;;4983122;28;20337;-52
2022/12/08 08:54:22;;;;;;;5.25;2.53;;;25.80;84.80;;;;;;4983034;28;20217;-52
2022/12/08 08:56:49;;;;;;;3.35;2.30;;;25.70;84.70;;;;;;4983345;28;20039;-52
2022/12/08 08:59:15;;;;;;;5.65;2.95;;;25.70;84.80;;;;;;4982876;28;20033;-51
2022/12/08 09:01:42;;;;;;;5.85;2.58;;;25.70;84.90;;;;;;4982899;28;20329;-53
2022/12/08 09:04:09;;;;;;;4.03;2.33;;;25.70;84.90;;;;;;5027081;28;20056;-54
2022/12/08 09:06:36;;;;;;;4.93;2.65;;;25.70;84.90;;;;;;4983249;28;20027;-52
2022/12/08 09:09:03;;;;;;;3.95;2.63;;;25.80;85.50;;;;;;5067804;28;20078;-52
2022/12/08 09:11:31;;;;;;;3.97;2.35;;;25.70;84.80;;;;;;5084473;28;20020;-53
2022/12/08 09:13:57;;;;;;;4.65;2.35;;;25.70;84.80;;;;;;5021063;28;20092;-51
2022/12/08 09:16:24;;;;;;;5.65;2.95;;;25.70;84.70;;;;;;5084400;28;20028;-53
2022/12/08 09:18:51;;;;;;;6.47;2.83;;;25.70;84.60;;;;;;5084309;28;20313;-52
2022/12/08 09:21:22;;;;;;;6.22;2.60;;;25.70;84.60;;;;;;5004019;28;20035;-52
2022/12/08 09:23:53;;;;;;;4.43;2.60;;;25.70;84.60;;;;;;4963745;29;20431;-52
2022/12/08 09:26:23;;;;;;;7.73;2.67;;;25.70;84.60;;;;;;4968345;28;20060;-55
2022/12/08 09:28:51;;;;;;;4.15;2.53;;;25.70;84.60;;;;;;4982648;28;20018;-52
2022/12/08 09:31:19;;;;;;;2.78;2.28;;;25.70;84.60;;;;;;4982776;28;20042;-52
2022/12/08 09:33:46;;;;;;;4.88;2.40;;;25.70;84.70;;;;;;4982379;28;20042;-52
2022/12/08 09:36:13;;;;;;;4.25;2.67;;;25.70;84.90;;;;;;4982225;28;20027;-52
2022/12/08 09:38:40;;;;;;;3.60;2.78;;;25.70;85.00;;;;;;4980564;28;20240;-52
2022/12/08 09:41:31;;;;;;;3.50;2.35;;;25.70;85.20;;;;;;4966341;28;20149;-51
2022/12/08 09:44:39;;;;;;;4.53;2.77;;;25.70;85.20;;;;;;4968234;28;20046;-51
2022/12/08 09:47:28;;;;;;;6.18;2.80;;;25.60;85.10;;;;;;4947183;28;20046;-53
2022/12/08 09:49:58;;;;;;;4.68;2.55;;;25.60;85.00;;;;;;4977438;28;20034;-52
2022/12/08 09:52:42;;;;;;;4.00;2.33;;;25.60;85.00;;;;;;4983139;28;20082;-52
2022/12/08 09:55:33;;;;;;;4.78;2.40;;;25.60;84.90;;;;;;4967488;28;20062;-54
2022/12/08 09:58:02;;;;;;;4.50;2.47;;;25.60;84.90;;;;;;4962680;29;20031;-52
2022/12/08 10:00:29;;;;;;;5.20;2.53;;;25.60;84.90;;;;;;4962737;29;20319;-52
2022/12/08 10:02:56;;;;;;;3.30;2.65;;;25.60;84.80;;;;;;4968588;28;20035;-53
2022/12/08 10:05:25;;;;;;;4.53;2.85;;;25.60;84.80;;;;;;4977660;28;20116;-52
2022/12/08 10:08:19;;;;;;;4.18;2.45;;;25.60;84.80;;;;;;4968317;28;20383;-51
2022/12/08 10:11:15;;;;;;;4.22;2.47;;;25.50;84.90;;;;;;4969071;28;20027;-54
2022/12/08 10:13:49;;;;;;;5.95;2.45;;;25.50;85.00;;;;;;4969110;28;20069;-54
2022/12/08 10:16:22;;;;;;;4.47;2.50;;;25.50;85.00;;;;;;4969652;28;20090;-54
2022/12/08 10:18:56;;;;;;;7.55;2.70;;;25.50;85.10;;;;;;4974156;28;20039;-53
2022/12/08 10:21:26;;;;;;;5.25;2.60;;;25.50;85.00;;;;;;4979888;28;20023;-53
2022/12/08 10:23:57;;;;;;;4.82;2.63;;;25.50;85.10;;;;;;4968419;28;20030;-56
2022/12/08 10:26:24;;;;;;;7.10;2.60;;;25.50;85.00;;;;;;4967857;28;20028;-54
2022/12/08 10:28:51;;;;;;;7.72;2.60;;;25.50;85.00;;;;;;4978149;28;20045;-52
2022/12/08 10:31:23;;;;;;;6.50;2.55;;;25.60;85.00;;;;;;4980665;28;20030;-54
2022/12/08 10:33:58;;;;;;;8.55;2.83;;;25.50;85.10;;;;;;4982163;28;20064;-52
2022/12/08 10:36:57;;;;;;;8.73;2.72;;;25.50;85.10;;;;;;4981673;28;20207;-53
2022/12/08 10:39:30;;;;;;;6.03;2.60;;;25.50;85.20;;;;;;4961721;28;20039;-52
2022/12/08 10:42:08;;;;;;;4.88;2.80;;;25.50;85.30;;;;;;4965806;28;20031;-52
2022/12/08 10:45:16;;;;;;;7.43;3.17;;;25.50;85.50;;;;;;4967476;28;20055;-56
2022/12/08 10:47:49;;;;;;;10.77;2.90;;;25.50;85.70;;;;;;4951463;28;20050;-51
2022/12/08 10:50:40;;;;;;;4.82;2.65;;;25.50;85.80;;;;;;4976732;28;20105;-58
2022/12/08 10:53:09;;;;;;;7.93;3.20;;;25.50;86.00;;;;;;4981442;28;20027;-59
2022/12/08 10:56:05;;;;;;;6.03;2.80;;;25.50;86.10;;;;;;4969607;28;20031;-54
2022/12/08 10:58:34;;;;;;;6.63;2.90;;;25.50;86.30;;;;;;4973005;28;20020;-52
2022/12/08 11:01:25;;;;;;;8.20;3.00;;;25.50;86.40;;;;;;4980154;28;20330;-53
2022/12/08 11:03:56;;;;;;;8.02;2.90;;;25.50;86.50;;;;;;4970088;28;20102;-50
2022/12/08 11:06:30;;;;;;;5.90;2.67;;;25.50;86.70;;;;;;4970926;28;20105;-54
2022/12/08 11:09:03;;;;;;;7.25;2.95;;;25.50;86.80;;;;;;4969940;28;20015;-52
2022/12/08 11:11:47;;;;;;;5.40;3.20;;;25.50;86.80;;;;;;4967554;28;20327;-53
2022/12/08 11:14:27;;;;;;;6.63;2.85;;;25.50;86.80;;;;;;4976532;28;20022;-51
2022/12/08 11:17:01;;;;;;;7.45;3.25;;;25.50;86.90;;;;;;4966651;28;20050;-51
2022/12/08 11:19:28;;;;;;;8.80;3.60;;;25.50;86.80;;;;;;4977984;28;20015;-50
2022/12/08 11:21:54;;;;;;;9.32;3.58;;;25.50;86.80;;;;;;4976582;28;20057;-53
2022/12/08 11:24:27;;;;;;;5.68;3.15;;;25.50;86.90;;;;;;4965883;28;20026;-52
2022/12/08 11:27:02;;;;;;;5.65;3.13;;;25.50;86.80;;;;;;4971150;28;20072;-51
2022/12/08 11:29:31;;;;;;;7.57;3.22;;;25.60;86.90;;;;;;4977549;28;20039;-52
2022/12/08 11:32:16;;;;;;;8.05;3.17;;;25.60;86.90;;;;;;4965493;28;20030;-52
2022/12/08 11:34:57;;;;;;;7.18;3.17;;;25.60;86.90;;;;;;4964967;29;20223;-57
2022/12/08 11:37:23;;;;;;;8.82;3.30;;;25.60;86.90;;;;;;4966380;28;20027;-52
2022/12/08 11:39:52;;;;;;;5.85;3.53;;;25.60;86.90;;;;;;4971651;28;20034;-53
2022/12/08 11:42:23;;;;;;;7.60;3.20;;;25.70;87.00;;;;;;4984678;28;20045;-53
2022/12/08 11:44:57;;;;;;;7.68;3.20;;;25.60;86.90;;;;;;4983863;28;20059;-53
2022/12/08 11:47:27;;;;;;;9.13;2.97;;;25.60;87.00;;;;;;4983968;28;20058;-52
2022/12/08 11:50:11;;;;;;;8.85;2.85;;;25.60;87.00;;;;;;4983833;28;20030;-52
2022/12/08 11:52:48;;;;;;;6.03;3.30;;;25.70;87.10;;;;;;4984408;28;20029;-53
2022/12/08 11:55:36;;;;;;;8.30;3.15;;;25.70;87.10;;;;;;4983958;28;20042;-52
2022/12/08 11:58:32;;;;;;;7.00;3.20;;;25.70;87.00;;;;;;4968061;28;20027;-52
2022/12/08 12:00:59;;;;;;;7.35;3.22;;;25.70;87.10;;;;;;4961236;28;20055;-52
2022/12/08 12:03:36;;;;;;;7.82;3.50;;;25.70;87.10;;;;;;4964534;29;20019;-53
2022/12/08 12:06:40;;;;;;;5.13;3.08;;;25.70;87.10;;;;;;4964887;28;20043;-54
2022/12/08 12:09:23;;;;;;;7.47;2.90;;;25.70;87.20;;;;;;4965726;28;20077;-51
2022/12/08 12:12:15;;;;;;;9.77;3.00;;;25.70;87.30;;;;;;4965826;28;20040;-50
2022/12/08 12:15:10;;;;;;;8.93;3.33;;;25.70;87.30;;;;;;4965053;28;20031;-54
2022/12/08 12:18:07;;;;;;;8.32;3.45;;;25.70;87.30;;;;;;4964721;28;20042;-52
2022/12/08 12:20:51;;;;;;;9.40;3.22;;;25.70;87.40;;;;;;4966448;28;20039;-57
2022/12/08 12:23:31;;;;;;;7.50;3.10;;;25.80;87.50;;;;;;4976409;28;20031;-52
2022/12/08 12:26:04;;;;;;;7.72;3.60;;;25.80;87.50;;;;;;4966599;28;20256;-52
2022/12/08 12:28:41;;;;;;;10.90;4.40;;;25.80;87.60;;;;;;4979097;28;20031;-53
2022/12/08 12:31:15;;;;;;;8.65;4.20;;;25.80;87.50;;;;;;4968688;28;20035;-53
2022/12/08 12:33:46;;;;;;;7.28;4.00;;;25.80;87.40;;;;;;4963946;28;20211;-51
2022/12/08 12:36:14;;;;;;;10.50;3.60;;;25.80;87.40;;;;;;4963931;28;20041;-52
2022/12/08 12:39:05;;;;;;;9.38;3.33;;;25.90;87.50;;;;;;4966797;28;20027;-50
2022/12/08 12:41:59;;;;;;;6.57;3.15;;;25.90;87.60;;;;;;4975586;28;20030;-51
2022/12/08 12:44:31;;;;;;;7.75;3.58;;;25.90;87.60;;;;;;4961705;28;20035;-50
2022/12/08 12:47:04;;;;;;;5.57;3.63;;;25.90;87.60;;;;;;4970875;28;20042;-50
2022/12/08 12:49:42;;;;;;;5.80;3.85;;;26.00;87.80;;;;;;4983041;28;20018;-55
2022/12/08 12:52:15;;;;;;;8.18;3.20;;;26.00;87.80;;;;;;4983257;28;20053;-52
2022/12/08 12:55:02;;;;;;;6.70;3.67;;;26.00;87.90;;;;;;4973598;28;20315;-52
2022/12/08 12:57:37;;;;;;;11.63;4.25;;;26.10;87.90;;;;;;4960353;28;20176;-51
2022/12/08 13:00:05;;;;;;;14.75;3.30;;;26.10;87.80;;;;;;4963567;28;20019;-52
2022/12/08 13:02:34;;;;;;;7.38;3.35;;;26.10;87.60;;;;;;4972414;28;20137;-55
2022/12/08 13:05:19;;;;;;;6.47;3.30;;;26.20;87.60;;;;;;4963930;28;20329;-51
2022/12/08 13:08:00;;;;;;;7.05;3.50;;;26.10;87.30;;;;;;4963366;28;20053;-54
2022/12/08 13:10:37;;;;;;;5.72;3.35;;;26.20;87.10;;;;;;4963823;29;20023;-56
2022/12/08 13:13:17;;;;;;;4.35;3.20;;;26.20;86.80;;;;;;4963649;29;20035;-53
2022/12/08 13:16:22;;;;;;;6.55;3.45;;;26.30;86.60;;;;;;4963677;28;20015;-52
2022/12/08 13:18:51;;;;;;;7.70;3.22;;;26.30;86.20;;;;;;4923857;29;20047;-52